createdAt,value
2023-03-06T00:00:56.988Z,99173.16
2023-03-06T00:03:28.001Z,99168.66
2023-03-06T00:05:58.009Z,99169.34
2023-03-06T00:08:27.043Z,99173.73
2023-03-06T00:10:56.325Z,99173.93
2023-03-06T00:13:30.215Z,99172.83
2023-03-06T00:16:01.021Z,99170.52
2023-03-06T00:18:29.322Z,99172.27
2023-03-06T00:20:57.436Z,99166.77
2023-03-06T00:23:27.618Z,99167.23
2023-03-06T00:25:55.882Z,99168.07
2023-03-06T00:28:24.085Z,99165.79
2023-03-06T00:30:52.174Z,99161.27
2023-03-06T00:33:20.281Z,99158.11
2023-03-06T00:35:48.385Z,99159.11
2023-03-06T00:38:16.411Z,99154.67
2023-03-06T00:40:44.593Z,99152.48
2023-03-06T00:43:13.213Z,99151.88
2023-03-06T00:45:41.326Z,99152.48
2023-03-06T00:48:10.903Z,99154.89
2023-03-06T00:50:39.009Z,99150.56
2023-03-06T00:53:07.055Z,99152.23
2023-03-06T00:55:35.199Z,99151.98
2023-03-06T00:58:03.241Z,99146.38
2023-03-06T01:00:31.530Z,99144.00
2023-03-06T01:02:59.625Z,99141.45
2023-03-06T01:05:27.876Z,99141.87
2023-03-06T01:07:55.923Z,99139.08
2023-03-06T01:10:24.064Z,99137.02
2023-03-06T01:12:52.061Z,99136.30
2023-03-06T01:15:20.743Z,99132.83
2023-03-06T01:17:52.474Z,99130.19
2023-03-06T01:20:20.831Z,99126.83
2023-03-06T01:22:48.967Z,99124.52
2023-03-06T01:25:17.129Z,99124.09
2023-03-06T01:27:45.140Z,99123.53
2023-03-06T01:30:13.637Z,99120.02
2023-03-06T01:32:41.781Z,99115.79
2023-03-06T01:35:10.355Z,99113.45
2023-03-06T01:37:39.316Z,99117.81
2023-03-06T01:40:10.427Z,99109.88
2023-03-06T01:42:38.596Z,99110.23
2023-03-06T01:45:15.528Z,99101.34
2023-03-06T01:47:44.899Z,99101.52
2023-03-06T01:50:13.171Z,99097.21
2023-03-06T01:52:49.464Z,99095.77
2023-03-06T01:55:23.908Z,99091.50
2023-03-06T01:57:57.778Z,99090.50
2023-03-06T02:00:28.052Z,99089.05
2023-03-06T02:03:04.069Z,99087.40
2023-03-06T02:05:33.180Z,99090.52
2023-03-06T02:08:03.928Z,99093.15
2023-03-06T02:10:32.418Z,99090.63
2023-03-06T02:13:00.911Z,99089.35
2023-03-06T02:15:30.189Z,99086.89
2023-03-06T02:18:00.455Z,99083.47
2023-03-06T02:20:37.579Z,99084.99
2023-03-06T02:23:11.257Z,99081.88
2023-03-06T02:25:44.226Z,99081.49
2023-03-06T02:28:15.272Z,99075.46
2023-03-06T02:30:44.946Z,99072.64
2023-03-06T02:33:19.282Z,99068.93
2023-03-06T02:35:52.691Z,99073.62
2023-03-06T02:38:25.029Z,99073.83
2023-03-06T02:40:53.275Z,99073.45
2023-03-06T02:43:32.052Z,99070.70
2023-03-06T02:46:00.206Z,99069.52
2023-03-06T02:48:28.372Z,99065.27
2023-03-06T02:50:56.425Z,99059.41
2023-03-06T02:53:24.670Z,99063.56
2023-03-06T02:55:53.444Z,99061.36
2023-03-06T02:58:21.531Z,99063.16
2023-03-06T03:00:50.195Z,99066.73
2023-03-06T03:03:18.629Z,99063.77
2023-03-06T03:05:46.656Z,99062.00
2023-03-06T03:08:14.744Z,99058.88
2023-03-06T03:10:43.003Z,99053.48
2023-03-06T03:13:11.052Z,99052.15
2023-03-06T03:15:39.150Z,99049.66
2023-03-06T03:18:07.389Z,99050.86
2023-03-06T03:20:35.418Z,99050.77
2023-03-06T03:23:03.797Z,99050.14
2023-03-06T03:25:31.948Z,99048.52
2023-03-06T03:27:59.947Z,99048.83
2023-03-06T03:30:28.049Z,99046.45
2023-03-06T03:32:56.667Z,99044.30
2023-03-06T03:35:24.708Z,99041.40
2023-03-06T03:37:54.740Z,99045.51
2023-03-06T03:40:23.242Z,99041.33
2023-03-06T03:42:51.336Z,99036.05
2023-03-06T03:45:19.514Z,99036.08
2023-03-06T03:47:47.628Z,99032.73
2023-03-06T03:50:15.719Z,99032.61
2023-03-06T03:52:43.872Z,99028.39
2023-03-06T03:55:12.062Z,99027.96
2023-03-06T03:57:40.127Z,99024.62
2023-03-06T04:00:11.996Z,99024.16
2023-03-06T04:02:40.144Z,99025.33
2023-03-06T04:05:08.753Z,99021.63
2023-03-06T04:07:37.072Z,99015.34
2023-03-06T04:10:06.841Z,99012.27
2023-03-06T04:12:35.929Z,99014.48
2023-03-06T04:15:07.732Z,99015.27
2023-03-06T04:17:36.096Z,99008.89
2023-03-06T04:20:05.109Z,99003.13
2023-03-06T04:22:33.147Z,99003.92
2023-03-06T04:25:01.361Z,99000.90
2023-03-06T04:27:29.364Z,98998.60
2023-03-06T04:29:57.457Z,99000.56
2023-03-06T04:32:25.591Z,98998.23
2023-03-06T04:34:53.605Z,99000.21
2023-03-06T04:37:25.442Z,98998.50
2023-03-06T04:39:53.559Z,98997.90
2023-03-06T04:42:21.940Z,98995.86
2023-03-06T04:44:49.996Z,98995.21
2023-03-06T04:47:19.206Z,98993.30
2023-03-06T04:49:47.747Z,98993.44
2023-03-06T04:52:15.755Z,98989.45
2023-03-06T04:54:43.868Z,98985.63
2023-03-06T04:57:13.034Z,98977.92
2023-03-06T04:59:41.144Z,98977.86
2023-03-06T05:02:09.270Z,98973.31
2023-03-06T05:04:37.355Z,98971.67
2023-03-06T05:07:05.562Z,98970.69
2023-03-06T05:09:35.001Z,98963.38
2023-03-06T05:12:03.806Z,98952.92
2023-03-06T05:14:32.360Z,98957.13
2023-03-06T05:17:00.602Z,98954.77
2023-03-06T05:19:28.635Z,98952.96
2023-03-06T05:21:56.840Z,98957.79
2023-03-06T05:24:25.943Z,98958.67
2023-03-06T05:26:54.036Z,98959.34
2023-03-06T05:29:22.591Z,98958.15
2023-03-06T05:31:50.664Z,98954.50
2023-03-06T05:34:18.770Z,98951.83
2023-03-06T05:36:47.461Z,98953.30
2023-03-06T05:39:15.584Z,98952.52
2023-03-06T05:41:43.680Z,98945.94
2023-03-06T05:44:11.735Z,98946.67
2023-03-06T05:46:40.015Z,98950.23
2023-03-06T05:49:08.433Z,98948.25
2023-03-06T05:51:36.564Z,98944.23
2023-03-06T05:54:04.600Z,98942.65
2023-03-06T05:56:32.966Z,98936.45
2023-03-06T05:59:00.954Z,98937.33
2023-03-06T06:01:29.939Z,98935.27
2023-03-06T06:03:58.107Z,98938.36
2023-03-06T06:06:26.194Z,98937.00
2023-03-06T06:08:54.256Z,98941.13
2023-03-06T06:11:22.336Z,98946.30
2023-03-06T06:13:50.558Z,98945.61
2023-03-06T06:16:19.546Z,98947.17
2023-03-06T06:18:47.954Z,98949.64
2023-03-06T06:21:16.130Z,98948.77
2023-03-06T06:23:44.323Z,98946.63
2023-03-06T06:26:12.511Z,98949.48
2023-03-06T06:28:40.587Z,98951.83
2023-03-06T06:31:10.799Z,98952.08
2023-03-06T06:33:40.293Z,98952.83
2023-03-06T06:36:21.594Z,98954.23
2023-03-06T06:38:50.162Z,98955.12
2023-03-06T06:41:52.988Z,98953.58
2023-03-06T06:44:08.546Z,98953.46
2023-03-06T06:47:20.873Z,98956.73
2023-03-06T06:49:25.857Z,98960.67
2023-03-06T06:51:53.913Z,98957.63
2023-03-06T06:54:22.464Z,98960.02
2023-03-06T06:56:51.275Z,98963.58
2023-03-06T06:59:19.448Z,98958.73
2023-03-06T07:01:47.666Z,98959.85
2023-03-06T07:04:16.746Z,98958.30
2023-03-06T07:06:45.485Z,98957.63
2023-03-06T07:09:14.181Z,98955.06
2023-03-06T07:11:42.407Z,98953.70
2023-03-06T07:14:10.425Z,98957.48
2023-03-06T07:16:38.510Z,98956.11
2023-03-06T07:19:07.487Z,98952.29
2023-03-06T07:21:35.716Z,98954.16
2023-03-06T07:24:04.827Z,98955.29
2023-03-06T07:26:34.784Z,98955.61
2023-03-06T07:29:04.508Z,98956.37
2023-03-06T07:31:32.633Z,98956.08
2023-03-06T07:34:02.530Z,98956.77
2023-03-06T07:36:33.027Z,98951.25
2023-03-06T07:39:01.216Z,98953.40
2023-03-06T07:41:29.283Z,98955.38
2023-03-06T07:43:57.444Z,98957.55
2023-03-06T07:46:25.780Z,98955.55
2023-03-06T07:48:53.914Z,98957.51
2023-03-06T07:51:22.745Z,98959.96
2023-03-06T07:53:50.797Z,98953.98
2023-03-06T07:56:18.878Z,98952.77
2023-03-06T07:58:48.304Z,98951.38
2023-03-06T08:01:19.984Z,98955.27
2023-03-06T08:03:50.223Z,98957.39
2023-03-06T08:06:24.328Z,98956.60
2023-03-06T08:08:54.480Z,98957.45
2023-03-06T08:11:25.685Z,98956.80
2023-03-06T08:13:55.309Z,98959.44
2023-03-06T08:16:26.348Z,98955.46
2023-03-06T08:18:54.840Z,98960.61
2023-03-06T08:21:25.846Z,98957.81
2023-03-06T08:23:54.290Z,98956.58
2023-03-06T08:26:24.803Z,98962.34
2023-03-06T08:28:54.455Z,98960.73
2023-03-06T08:31:27.823Z,98961.77
2023-03-06T08:33:57.570Z,98958.40
2023-03-06T08:36:26.511Z,98958.98
2023-03-06T08:38:54.834Z,98961.46
2023-03-06T08:41:22.985Z,98964.52
2023-03-06T08:43:51.143Z,98961.05
2023-03-06T08:46:21.525Z,98965.71
2023-03-06T08:48:49.574Z,98966.02
2023-03-06T08:51:18.688Z,98968.73
2023-03-06T08:53:47.023Z,98971.90
2023-03-06T08:56:23.802Z,98971.81
2023-03-06T08:58:52.981Z,98972.65
2023-03-06T09:01:33.197Z,98974.84
2023-03-06T09:04:03.779Z,98978.48
2023-03-06T09:06:35.429Z,98978.50
2023-03-06T09:09:04.509Z,98979.45
2023-03-06T09:11:33.168Z,98981.44
2023-03-06T09:14:01.593Z,98982.17
2023-03-06T09:16:29.877Z,98983.13
2023-03-06T09:18:58.864Z,98981.30
2023-03-06T09:21:28.660Z,98982.11
2023-03-06T09:23:56.977Z,98987.08
2023-03-06T09:26:39.699Z,98990.14
2023-03-06T09:29:13.181Z,98983.40
2023-03-06T09:31:41.238Z,98985.88
2023-03-06T09:34:09.368Z,98986.80
2023-03-06T09:36:53.293Z,98986.69
2023-03-06T09:39:24.157Z,98982.20
2023-03-06T09:41:53.091Z,98984.66
2023-03-06T09:44:27.850Z,98982.49
2023-03-06T09:47:20.505Z,98985.73
2023-03-06T09:50:09.923Z,98984.52
2023-03-06T09:52:47.073Z,98987.81
2023-03-06T09:55:17.991Z,98987.10
2023-03-06T09:58:16.821Z,98987.53
2023-03-06T10:01:03.456Z,98989.84
2023-03-06T10:03:38.991Z,98985.77
2023-03-06T10:06:13.041Z,98982.38
2023-03-06T10:09:12.018Z,98985.08
2023-03-06T10:11:49.527Z,98982.27
2023-03-06T10:14:20.388Z,98980.44
2023-03-06T10:16:48.803Z,98978.77
2023-03-06T10:19:19.240Z,98980.71
2023-03-06T10:22:00.300Z,98982.54
2023-03-06T10:24:49.826Z,98980.89
2023-03-06T10:27:39.758Z,98985.21
2023-03-06T10:30:41.527Z,98980.46
2023-03-06T10:33:41.926Z,98985.13
2023-03-06T10:36:16.368Z,98982.02
2023-03-06T10:38:48.385Z,98979.71
2023-03-06T10:41:30.270Z,98981.50
2023-03-06T10:44:01.148Z,98985.30
2023-03-06T10:46:31.933Z,98981.40
2023-03-06T10:49:06.350Z,98981.02
2023-03-06T10:51:35.679Z,98981.54
2023-03-06T10:54:19.712Z,98983.23
2023-03-06T10:56:48.280Z,98988.05
2023-03-06T10:59:19.046Z,98980.61
2023-03-06T11:01:49.529Z,98982.61
2023-03-06T11:04:25.700Z,98984.26
2023-03-06T11:07:19.648Z,98984.48
2023-03-06T11:10:15.799Z,98979.90
2023-03-06T11:12:55.786Z,98977.15
2023-03-06T11:15:24.859Z,98979.72
2023-03-06T11:17:57.855Z,98974.67
2023-03-06T11:20:31.789Z,98973.46
2023-03-06T11:23:12.500Z,98969.88
2023-03-06T11:25:48.841Z,98970.05
2023-03-06T11:28:25.793Z,98966.80
2023-03-06T11:31:03.973Z,98966.13
2023-03-06T11:34:07.611Z,98965.18
2023-03-06T11:36:48.092Z,98964.42
2023-03-06T11:39:54.816Z,98961.51
2023-03-06T11:42:34.956Z,98958.89
2023-03-06T11:45:32.824Z,98961.13
2023-03-06T11:48:21.025Z,98960.64
2023-03-06T11:51:19.277Z,98961.16
2023-03-06T11:53:50.574Z,98960.83
2023-03-06T11:56:18.663Z,98958.80
2023-03-06T11:59:01.556Z,98956.42
2023-03-06T12:01:42.085Z,98950.60
2023-03-06T12:04:28.878Z,98953.45
2023-03-06T12:07:12.055Z,98950.77
2023-03-06T12:09:49.881Z,98948.77
2023-03-06T12:12:25.908Z,98942.30
2023-03-06T12:15:17.129Z,98941.66
2023-03-06T12:18:09.868Z,98939.25
2023-03-06T12:20:52.954Z,98938.56
2023-03-06T12:23:42.150Z,98939.22
2023-03-06T12:26:31.155Z,98936.85
2023-03-06T12:29:13.234Z,98941.30
2023-03-06T12:32:10.151Z,98936.08
2023-03-06T12:35:05.955Z,98937.66
2023-03-06T12:37:37.032Z,98939.29
2023-03-06T12:40:40.266Z,98938.98
2023-03-06T12:43:40.122Z,98941.77
2023-03-06T12:46:16.438Z,98944.23
2023-03-06T12:49:01.401Z,98942.48
2023-03-06T12:51:30.433Z,98940.75
2023-03-06T12:54:01.748Z,98944.64
2023-03-06T12:56:31.410Z,98944.73
2023-03-06T12:59:03.392Z,98948.27
2023-03-06T13:01:43.624Z,98946.16
2023-03-06T13:04:17.592Z,98942.51
2023-03-06T13:06:57.585Z,98943.71
2023-03-06T13:09:55.882Z,98949.25
2023-03-06T13:12:30.055Z,98943.39
2023-03-06T13:15:18.845Z,98940.79
2023-03-06T13:17:47.038Z,98940.62
2023-03-06T13:20:15.037Z,98939.06
2023-03-06T13:22:45.266Z,98937.52
2023-03-06T13:25:19.637Z,98938.03
2023-03-06T13:27:53.967Z,98938.92
2023-03-06T13:30:27.282Z,98935.48
2023-03-06T13:32:56.287Z,98934.44
2023-03-06T13:35:30.753Z,98936.50
2023-03-06T13:38:00.254Z,98930.79
2023-03-06T13:40:31.855Z,98930.11
2023-03-06T13:43:05.250Z,98932.06
2023-03-06T13:45:43.297Z,98924.41
2023-03-06T13:48:42.996Z,98924.50
2023-03-06T13:51:25.189Z,98918.48
2023-03-06T13:54:08.913Z,98915.06
2023-03-06T13:57:08.111Z,98913.90
2023-03-06T14:00:03.102Z,98915.66
2023-03-06T14:02:52.772Z,98917.75
2023-03-06T14:05:21.782Z,98911.38
2023-03-06T14:08:18.592Z,98910.01
2023-03-06T14:10:49.130Z,98907.27
2023-03-06T14:13:23.057Z,98904.84
2023-03-06T14:15:53.337Z,98904.99
2023-03-06T14:18:40.043Z,98905.83
2023-03-06T14:21:13.566Z,98905.35
2023-03-06T14:23:43.834Z,98906.61
2023-03-06T14:26:23.998Z,98906.83
2023-03-06T14:28:52.157Z,98903.59
2023-03-06T14:31:22.816Z,98902.73
2023-03-06T14:33:55.134Z,98899.63
2023-03-06T14:36:36.424Z,98896.54
2023-03-06T14:39:19.656Z,98893.27
2023-03-06T14:41:47.962Z,98893.09
2023-03-06T14:44:26.599Z,98892.02
2023-03-06T14:46:57.704Z,98891.98
2023-03-06T14:49:26.963Z,98894.23
2023-03-06T14:52:00.715Z,98897.71
2023-03-06T14:54:32.176Z,98899.48
2023-03-06T14:57:06.060Z,98896.84
2023-03-06T14:59:52.126Z,98893.00
2023-03-06T15:02:24.547Z,98895.71
2023-03-06T15:05:02.423Z,98900.15
2023-03-06T15:07:33.452Z,98898.90
2023-03-06T15:10:01.860Z,98898.38
2023-03-06T15:12:35.426Z,98896.52
2023-03-06T15:15:25.581Z,98896.33
2023-03-06T15:17:54.484Z,98899.75
2023-03-06T15:20:48.710Z,98897.48
2023-03-06T15:23:27.319Z,98894.64
2023-03-06T15:26:02.236Z,98894.09
2023-03-06T15:28:39.596Z,98890.95
2023-03-06T15:31:10.537Z,98891.61
2023-03-06T15:33:38.742Z,98892.27
2023-03-06T15:36:20.474Z,98888.96
2023-03-06T15:38:48.741Z,98886.16
2023-03-06T15:41:30.491Z,98881.14
2023-03-06T15:44:04.642Z,98886.61
2023-03-06T15:46:32.852Z,98887.79
2023-03-06T15:49:03.412Z,98885.34
2023-03-06T15:51:33.455Z,98883.23
2023-03-06T15:54:12.026Z,98885.27
2023-03-06T15:56:44.057Z,98880.75
2023-03-06T15:59:22.162Z,98883.20
2023-03-06T16:01:51.170Z,98881.86
2023-03-06T16:04:20.039Z,98878.10
2023-03-06T16:06:48.341Z,98877.08
2023-03-06T16:09:16.559Z,98879.98
2023-03-06T16:11:45.335Z,98877.08
2023-03-06T16:14:23.835Z,98876.36
2023-03-06T16:16:54.296Z,98874.28
2023-03-06T16:19:27.338Z,98879.61
2023-03-06T16:21:56.621Z,98875.96
2023-03-06T16:24:26.342Z,98874.89
2023-03-06T16:26:55.375Z,98870.88
2023-03-06T16:29:28.162Z,98871.86
2023-03-06T16:31:57.792Z,98880.61
2023-03-06T16:34:26.164Z,98876.77
2023-03-06T16:36:54.384Z,98878.47
2023-03-06T16:39:24.043Z,98874.63
2023-03-06T16:41:53.168Z,98877.52
2023-03-06T16:44:21.720Z,98872.50
2023-03-06T16:46:50.605Z,98876.64
2023-03-06T16:49:24.423Z,98875.30
2023-03-06T16:51:53.354Z,98871.70
2023-03-06T16:54:24.285Z,98873.59
2023-03-06T16:56:52.474Z,98870.84
2023-03-06T16:59:20.588Z,98872.38
2023-03-06T17:01:48.824Z,98876.65
2023-03-06T17:04:16.901Z,98874.38
2023-03-06T17:06:45.059Z,98876.22
2023-03-06T17:09:14.494Z,98878.27
2023-03-06T17:11:46.761Z,98879.44
2023-03-06T17:14:15.112Z,98881.11
2023-03-06T17:16:43.263Z,98886.05
2023-03-06T17:19:15.309Z,98889.12
2023-03-06T17:21:44.431Z,98889.48
2023-03-06T17:24:12.561Z,98891.39
2023-03-06T17:26:40.758Z,98895.38
2023-03-06T17:29:09.730Z,98890.95
2023-03-06T17:31:37.829Z,98892.16
2023-03-06T17:34:05.962Z,98889.42
2023-03-06T17:36:34.255Z,98883.91
2023-03-06T17:39:03.219Z,98876.48
2023-03-06T17:41:32.980Z,98882.11
2023-03-06T17:44:02.032Z,98881.16
2023-03-06T17:46:32.268Z,98884.69
2023-03-06T17:49:27.617Z,98884.25
2023-03-06T17:55:42.260Z,98884.15
2023-03-06T17:58:23.409Z,98888.71
2023-03-06T18:00:51.647Z,98890.77
2023-03-06T18:03:20.060Z,98889.91
2023-03-06T18:05:59.602Z,98887.66
2023-03-06T18:08:29.904Z,98887.08
2023-03-06T18:11:05.474Z,98884.08
2023-03-06T18:13:36.997Z,98886.02
2023-03-06T18:16:13.992Z,98883.72
2023-03-06T18:18:42.209Z,98878.56
2023-03-06T18:21:13.869Z,98882.07
2023-03-06T18:23:43.879Z,98879.92
2023-03-06T18:26:25.129Z,98875.19
2023-03-06T18:29:08.136Z,98879.08
2023-03-06T18:31:47.043Z,98876.98
2023-03-06T18:34:19.288Z,98881.83
2023-03-06T18:36:49.400Z,98880.63
2023-03-06T18:39:38.708Z,98882.67
2023-03-06T18:42:07.803Z,98885.38
2023-03-06T18:44:57.757Z,98883.27
2023-03-06T18:48:29.645Z,98882.84
2023-03-06T18:51:25.825Z,98884.14
2023-03-06T18:54:02.582Z,98883.55
2023-03-06T19:00:01.132Z,98884.61
2023-03-06T19:02:40.000Z,98883.94
2023-03-06T19:05:10.728Z,98883.80
2023-03-06T19:07:43.571Z,98883.33
2023-03-06T19:10:26.889Z,98881.84
2023-03-06T19:12:55.807Z,98880.66
2023-03-06T19:15:25.236Z,98881.85
2023-03-06T19:17:53.840Z,98879.73
2023-03-06T19:20:22.992Z,98882.95
2023-03-06T19:22:51.315Z,98882.20
2023-03-06T19:25:20.348Z,98878.67
2023-03-06T19:27:48.473Z,98881.51
2023-03-06T19:30:16.780Z,98879.52
2023-03-06T19:32:46.126Z,98877.40
2023-03-06T19:35:14.299Z,98876.00
2023-03-06T19:37:42.463Z,98877.04
2023-03-06T19:40:11.438Z,98876.35
2023-03-06T19:42:39.744Z,98876.05
2023-03-06T19:45:08.568Z,98871.75
2023-03-06T19:47:36.664Z,98872.58
2023-03-06T19:50:05.203Z,98870.27
2023-03-06T19:52:36.539Z,98874.90
2023-03-06T19:55:05.596Z,98874.00
2023-03-06T19:57:33.896Z,98875.85
2023-03-06T20:00:02.118Z,98874.75
2023-03-06T20:02:32.624Z,98874.67
2023-03-06T20:05:00.827Z,98874.81
2023-03-06T20:07:28.967Z,98874.30
2023-03-06T20:10:00.778Z,98873.12
2023-03-06T20:12:29.133Z,98871.06
2023-03-06T20:14:57.297Z,98870.02
2023-03-06T20:17:25.563Z,98866.02
2023-03-06T20:19:55.963Z,98865.45
2023-03-06T20:22:24.092Z,98867.45
2023-03-06T20:24:52.673Z,98868.21
2023-03-06T20:27:20.782Z,98865.73
2023-03-06T20:29:48.904Z,98865.29
2023-03-06T20:32:16.995Z,98867.64
2023-03-06T20:34:45.395Z,98864.86
2023-03-06T20:37:13.556Z,98868.30
2023-03-06T20:39:41.740Z,98863.98
2023-03-06T20:42:10.005Z,98863.80
2023-03-06T20:44:38.188Z,98861.17
2023-03-06T20:47:06.318Z,98862.55
2023-03-06T20:49:55.519Z,98858.21
2023-03-06T20:52:25.284Z,98856.05
2023-03-06T20:54:57.125Z,98854.27
2023-03-06T20:57:25.215Z,98851.74
2023-03-06T21:00:11.158Z,98850.84
2023-03-06T21:02:39.584Z,98853.57
2023-03-06T21:05:08.837Z,98852.38
2023-03-06T21:07:37.578Z,98849.64
2023-03-06T21:10:06.498Z,98851.17
2023-03-06T21:12:34.588Z,98848.94
2023-03-06T21:15:02.907Z,98846.36
2023-03-06T21:17:31.195Z,98846.12
2023-03-06T21:19:59.418Z,98845.54
2023-03-06T21:22:29.785Z,98841.52
2023-03-06T21:24:57.984Z,98839.92
2023-03-06T21:27:26.158Z,98840.38
2023-03-06T21:29:54.271Z,98839.99
2023-03-06T21:32:23.191Z,98834.83
2023-03-06T21:34:51.492Z,98836.05
2023-03-06T21:37:19.614Z,98836.91
2023-03-06T21:39:47.661Z,98837.43
2023-03-06T21:42:15.804Z,98831.59
2023-03-06T21:44:44.280Z,98829.70
2023-03-06T21:47:12.364Z,98828.82
2023-03-06T21:49:40.483Z,98826.58
2023-03-06T21:52:08.584Z,98822.05
2023-03-06T21:54:36.634Z,98823.11
2023-03-06T21:57:05.062Z,98820.86
2023-03-06T21:59:33.165Z,98822.59
2023-03-06T22:02:01.217Z,98819.31
2023-03-06T22:04:29.366Z,98814.81
2023-03-06T22:06:57.424Z,98814.09
2023-03-06T22:09:25.526Z,98813.54
2023-03-06T22:11:53.705Z,98810.91
2023-03-06T22:14:21.840Z,98811.16
2023-03-06T22:16:51.462Z,98806.66
2023-03-06T22:19:19.644Z,98806.80
2023-03-06T22:21:47.742Z,98804.79
2023-03-06T22:24:15.786Z,98803.08
2023-03-06T22:26:44.159Z,98803.45
2023-03-06T22:29:12.226Z,98803.78
2023-03-06T22:31:42.192Z,98795.86
2023-03-06T22:34:10.428Z,98795.49
2023-03-06T22:36:38.600Z,98789.66
2023-03-06T22:39:06.767Z,98788.06
2023-03-06T22:41:34.870Z,98792.98
2023-03-06T22:44:03.193Z,98789.00
2023-03-06T22:46:32.957Z,98788.50
2023-03-06T22:49:02.045Z,98783.35
2023-03-06T22:51:30.251Z,98785.23
2023-03-06T22:53:58.454Z,98777.16
2023-03-06T22:56:26.570Z,98779.20
2023-03-06T22:58:55.024Z,98774.67
2023-03-06T23:01:29.879Z,98776.34
2023-03-06T23:04:00.527Z,98774.52
2023-03-06T23:06:34.975Z,98772.52
2023-03-06T23:09:09.239Z,98773.31
2023-03-06T23:11:37.445Z,98773.44
2023-03-06T23:14:06.000Z,98769.65
2023-03-06T23:16:35.862Z,98767.76
2023-03-06T23:19:05.234Z,98767.58
2023-03-06T23:21:34.568Z,98762.73
2023-03-06T23:24:02.999Z,98761.49
2023-03-06T23:26:32.085Z,98767.27
2023-03-06T23:29:00.704Z,98762.75
2023-03-06T23:31:31.117Z,98758.79
2023-03-06T23:34:01.748Z,98762.39
2023-03-06T23:36:30.671Z,98756.10
2023-03-06T23:38:58.792Z,98753.39
2023-03-06T23:41:26.990Z,98752.91
2023-03-06T23:43:55.454Z,98754.10
2023-03-06T23:46:23.603Z,98751.32
2023-03-06T23:48:52.405Z,98750.13
2023-03-06T23:51:22.410Z,98750.09
2023-03-06T23:53:59.061Z,98748.21
2023-03-06T23:56:28.614Z,98745.70
2023-03-06T23:58:56.815Z,98741.08
